Time;durP1;ratioP1;P1;durP2;ratioP2;P2;SDS_P1;SDS_P2;PMS_P1;PMS_P2;Temp;Humidity;BMP_temperature;BMP_pressure;BME280_temperature;BME280_humidity;BME280_pressure;Samples;Min_cycle;Max_cycle;Signal;HPM_P1;HPM_P2
2021/06/23 00:00:34;;;;;;;;;;;13.20;90.80;;;;;;5030853;28;19979;-68
2021/06/23 00:03:00;;;;;;;;;;;13.20;90.80;;;;;;5032126;28;19931;-68
2021/06/23 00:05:25;;;;;;;;;;;13.20;90.80;;;;;;5030777;28;20472;-68
2021/06/23 00:07:51;;;;;;;;;;;13.20;90.80;;;;;;5030478;28;19940;-68
2021/06/23 00:10:16;;;;;;;;;;;13.20;90.80;;;;;;5031597;28;19932;-68
2021/06/23 00:12:42;;;;;;;;;;;13.20;91.10;;;;;;5030872;28;20412;-68
2021/06/23 00:15:08;;;;;;;;;;;13.20;90.80;;;;;;5030700;28;19982;-67
2021/06/23 00:17:33;;;;;;;;;;;13.20;90.70;;;;;;5031692;28;19925;-68
2021/06/23 00:19:59;;;;;;;;;;;13.20;90.60;;;;;;5031959;28;19922;-68
2021/06/23 00:22:24;;;;;;;;;;;13.20;90.60;;;;;;5031358;28;19924;-68
2021/06/23 00:24:50;;;;;;;;;;;13.20;90.60;;;;;;5032428;28;19974;-68
2021/06/23 00:27:15;;;;;;;;;;;13.10;90.60;;;;;;5035501;28;19941;-68
2021/06/23 00:29:41;;;;;;;;;;;13.20;90.50;;;;;;5035238;28;19921;-68
2021/06/23 00:32:11;;;;;;;;;;;13.10;90.50;;;;;;5035212;28;19924;-68
2021/06/23 00:34:36;;;;;;;;;;;13.10;90.40;;;;;;5034030;28;19921;-68
2021/06/23 00:37:02;;;;;;;;;;;13.10;90.40;;;;;;5033936;28;19928;-68
2021/06/23 00:39:28;;;;;;;;;;;13.10;90.10;;;;;;5034968;28;19947;-68
2021/06/23 00:41:53;;;;;;;;;;;13.10;90.20;;;;;;5035116;28;19921;-68
2021/06/23 00:44:18;;;;;;;;;;;13.10;90.40;;;;;;5034902;28;19930;-68
2021/06/23 00:46:44;;;;;;;;;;;13.10;90.30;;;;;;5034766;28;20395;-68
2021/06/23 00:49:10;;;;;;;;;;;13.10;90.40;;;;;;5033382;28;20006;-67
2021/06/23 00:51:35;;;;;;;;;;;13.20;90.40;;;;;;5035094;28;19927;-67
2021/06/23 00:54:01;;;;;;;;;;;13.10;90.40;;;;;;5050214;28;19937;-68
2021/06/23 00:56:33;;;;;;;;;;;13.10;90.40;;;;;;5034673;28;19936;-68
2021/06/23 00:58:58;;;;;;;;;;;13.10;90.40;;;;;;5033320;28;19923;-67
2021/06/23 01:01:24;;;;;;;;;;;13.10;90.40;;;;;;5034851;28;20415;-67
2021/06/23 01:03:49;;;;;;;;;;;13.10;90.20;;;;;;5033518;28;19931;-68
2021/06/23 01:06:15;;;;;;;;;;;13.10;90.30;;;;;;5033503;28;20335;-67
2021/06/23 01:08:41;;;;;;;;;;;13.10;90.50;;;;;;5032951;28;19948;-68
2021/06/23 01:11:07;;;;;;;;;;;13.10;90.40;;;;;;5033474;28;19922;-68
2021/06/23 01:13:44;;;;;;;;;;;13.00;90.30;;;;;;5049911;28;19949;-67
2021/06/23 01:16:11;;;;;;;;;;;13.00;90.40;;;;;;5033401;28;20294;-68
2021/06/23 01:18:37;;;;;;;;;;;13.00;90.30;;;;;;5032923;28;19922;-67
2021/06/23 01:21:03;;;;;;;;;;;13.00;90.40;;;;;;5033117;28;19933;-68
2021/06/23 01:23:29;;;;;;;;;;;13.00;90.50;;;;;;5034182;28;20498;-68
2021/06/23 01:25:54;;;;;;;;;;;13.00;90.40;;;;;;5034240;28;19934;-67
2021/06/23 01:28:20;;;;;;;;;;;13.00;90.60;;;;;;5033837;28;19990;-68
2021/06/23 01:30:45;;;;;;;;;;;13.00;90.40;;;;;;5033086;28;19924;-67
2021/06/23 01:33:13;;;;;;;;;;;13.00;90.60;;;;;;5034134;28;19929;-67
2021/06/23 01:35:38;;;;;;;;;;;13.00;90.50;;;;;;5033888;28;19924;-67
2021/06/23 01:38:04;;;;;;;;;;;13.00;90.50;;;;;;5031975;28;19932;-67
2021/06/23 01:40:29;;;;;;;;;;;13.00;90.50;;;;;;5032868;28;19924;-67
2021/06/23 01:42:55;;;;;;;;;;;13.00;90.50;;;;;;5032983;28;19927;-68
2021/06/23 01:45:20;;;;;;;;;;;13.00;90.40;;;;;;5033724;28;19921;-68
2021/06/23 01:47:46;;;;;;;;;;;13.00;90.50;;;;;;5032575;28;19945;-67
2021/06/23 01:50:12;;;;;;;;;;;13.00;90.20;;;;;;5033853;28;20144;-68
2021/06/23 01:52:41;;;;;;;;;;;12.90;90.30;;;;;;5032723;28;19921;-68
2021/06/23 01:55:07;;;;;;;;;;;12.90;90.50;;;;;;5032581;28;19925;-67
2021/06/23 01:57:41;;;;;;;;;;;12.90;90.40;;;;;;5032492;28;20420;-68
2021/06/23 02:00:07;;;;;;;;;;;12.90;90.40;;;;;;5033648;28;19970;-68
2021/06/23 02:02:53;;;;;;;;;;;12.90;90.30;;;;;;5033797;28;19925;-68
2021/06/23 02:05:39;;;;;;;;;;;12.90;90.40;;;;;;5033725;28;19924;-67
2021/06/23 02:08:04;;;;;;;;;;;12.90;90.50;;;;;;5033287;28;20359;-68
2021/06/23 02:10:50;;;;;;;;;;;12.90;90.50;;;;;;5033444;28;20019;-67
2021/06/23 02:13:18;;;;;;;;;;;12.90;90.40;;;;;;5033584;28;20010;-67
2021/06/23 02:15:44;;;;;;;;;;;12.90;90.40;;;;;;5033397;28;19926;-67
2021/06/23 02:18:09;;;;;;;;;;;12.90;90.50;;;;;;5032228;28;19920;-67
2021/06/23 02:20:36;;;;;;;;;;;12.90;90.50;;;;;;5031925;28;19924;-67
2021/06/23 02:23:03;;;;;;;;;;;12.90;90.50;;;;;;5031965;28;20281;-68
2021/06/23 02:25:29;;;;;;;;;;;12.90;90.50;;;;;;5032093;28;19931;-68
2021/06/23 02:27:54;;;;;;;;;;;12.90;90.50;;;;;;5031932;28;20304;-67
2021/06/23 02:30:20;;;;;;;;;;;12.90;90.40;;;;;;5031929;28;20013;-68
2021/06/23 02:32:45;;;;;;;;;;;12.90;90.30;;;;;;5032064;28;19979;-68
2021/06/23 02:35:11;;;;;;;;;;;12.90;90.50;;;;;;5031902;28;19922;-67
2021/06/23 02:37:37;;;;;;;;;;;12.90;90.50;;;;;;5031752;28;19928;-68
2021/06/23 02:40:03;;;;;;;;;;;12.90;90.50;;;;;;5031611;28;19923;-68
2021/06/23 02:42:29;;;;;;;;;;;12.90;90.50;;;;;;5033061;28;19926;-68
2021/06/23 02:44:54;;;;;;;;;;;12.90;90.50;;;;;;5032805;28;19978;-67
2021/06/23 02:47:20;;;;;;;;;;;12.90;90.50;;;;;;5032641;28;19953;-67
2021/06/23 02:49:46;;;;;;;;;;;12.90;90.50;;;;;;5031553;28;19982;-67
2021/06/23 02:52:11;;;;;;;;;;;12.90;90.60;;;;;;5032995;28;20303;-68
2021/06/23 02:54:37;;;;;;;;;;;12.90;90.60;;;;;;5031698;28;19962;-68
2021/06/23 02:57:02;;;;;;;;;;;12.90;90.60;;;;;;5031391;28;20432;-68
2021/06/23 02:59:28;;;;;;;;;;;12.90;90.70;;;;;;5031428;28;19927;-67
2021/06/23 03:01:53;;;;;;;;;;;12.90;90.80;;;;;;5031545;28;19926;-67
2021/06/23 03:04:19;;;;;;;;;;;12.90;90.80;;;;;;5031552;28;19929;-68
2021/06/23 03:06:44;;;;;;;;;;;12.90;90.80;;;;;;5032546;28;19939;-67
2021/06/23 03:09:10;;;;;;;;;;;12.90;90.80;;;;;;5032422;28;20001;-67
2021/06/23 03:11:37;;;;;;;;;;;12.90;90.90;;;;;;5032737;28;19985;-67
2021/06/23 03:14:02;;;;;;;;;;;12.90;90.90;;;;;;5032788;28;19923;-68
2021/06/23 03:16:28;;;;;;;;;;;12.90;90.90;;;;;;5032537;28;19973;-67
2021/06/23 03:18:53;;;;;;;;;;;12.90;90.90;;;;;;5032404;28;20374;-67
2021/06/23 03:21:19;;;;;;;;;;;12.90;91.00;;;;;;5032368;28;19923;-67
2021/06/23 03:23:45;;;;;;;;;;;12.90;90.90;;;;;;5031008;28;19966;-67
2021/06/23 03:26:11;;;;;;;;;;;12.90;90.90;;;;;;5032392;28;20446;-67
2021/06/23 03:28:36;;;;;;;;;;;12.90;90.90;;;;;;5032242;28;20032;-67
2021/06/23 03:31:02;;;;;;;;;;;12.90;90.90;;;;;;5031375;28;19920;-68
2021/06/23 03:33:27;;;;;;;;;;;12.90;90.90;;;;;;5032221;28;20414;-68
2021/06/23 03:35:53;;;;;;;;;;;12.90;91.00;;;;;;5032263;28;20305;-67
2021/06/23 03:38:18;;;;;;;;;;;12.90;91.00;;;;;;5032347;28;19923;-67
2021/06/23 03:40:44;;;;;;;;;;;12.90;91.00;;;;;;5032039;28;19936;-67
2021/06/23 03:43:09;;;;;;;;;;;13.00;91.00;;;;;;5032444;28;20287;-67
2021/06/23 03:45:35;;;;;;;;;;;12.90;91.00;;;;;;5031941;28;19927;-68
2021/06/23 03:48:00;;;;;;;;;;;12.90;91.00;;;;;;5032196;28;19942;-67
2021/06/23 03:50:27;;;;;;;;;;;13.00;91.10;;;;;;5032410;28;20001;-67
2021/06/23 03:52:53;;;;;;;;;;;12.90;91.20;;;;;;5031213;28;19925;-68
2021/06/23 03:55:25;;;;;;;;;;;12.90;91.20;;;;;;5032019;28;19929;-68
2021/06/23 03:57:51;;;;;;;;;;;12.90;91.10;;;;;;5031898;28;19926;-67
2021/06/23 04:00:17;;;;;;;;;;;13.00;91.20;;;;;;5033460;28;20019;-68
2021/06/23 04:02:43;;;;;;;;;;;12.90;91.30;;;;;;5034963;28;19972;-67
2021/06/23 04:05:09;;;;;;;;;;;12.90;91.20;;;;;;5035882;28;19927;-67
2021/06/23 04:07:34;;;;;;;;;;;12.90;91.30;;;;;;5034601;28;20053;-68
2021/06/23 04:10:00;;;;;;;;;;;12.90;91.30;;;;;;5035793;28;19957;-68
2021/06/23 04:12:25;;;;;;;;;;;12.90;91.60;;;;;;5034668;28;19962;-67
2021/06/23 04:14:51;;;;;;;;;;;12.90;91.40;;;;;;5035756;28;20193;-67
2021/06/23 04:17:16;;;;;;;;;;;12.90;91.40;;;;;;5034495;28;19927;-67
2021/06/23 04:19:42;;;;;;;;;;;12.90;91.40;;;;;;5034387;28;19922;-68
2021/06/23 04:22:07;;;;;;;;;;;12.90;91.40;;;;;;5035282;28;19920;-67
2021/06/23 04:24:33;;;;;;;;;;;12.80;91.40;;;;;;5034636;28;20400;-68
2021/06/23 04:26:58;;;;;;;;;;;12.80;91.60;;;;;;5035449;28;20475;-68
2021/06/23 04:29:24;;;;;;;;;;;12.80;91.60;;;;;;5035436;28;19925;-67
2021/06/23 04:31:49;;;;;;;;;;;12.80;91.60;;;;;;5035604;28;20306;-68
2021/06/23 04:34:15;;;;;;;;;;;12.80;91.70;;;;;;5035041;28;20308;-67
2021/06/23 04:36:40;;;;;;;;;;;12.80;91.70;;;;;;5035337;28;20391;-68
2021/06/23 04:39:06;;;;;;;;;;;12.80;91.60;;;;;;5035188;28;19995;-67
2021/06/23 04:41:31;;;;;;;;;;;12.80;91.70;;;;;;5035645;28;19921;-68
2021/06/23 04:43:57;;;;;;;;;;;12.80;91.80;;;;;;5035186;28;20431;-67
2021/06/23 04:46:22;;;;;;;;;;;12.80;91.80;;;;;;5035193;28;19922;-67
2021/06/23 04:48:48;;;;;;;;;;;12.80;91.70;;;;;;5033857;28;19946;-67
2021/06/23 04:51:15;;;;;;;;;;;12.80;91.80;;;;;;5035272;28;19965;-67
2021/06/23 04:53:41;;;;;;;;;;;12.80;91.90;;;;;;5034063;28;20249;-68
2021/06/23 04:56:06;;;;;;;;;;;12.80;92.00;;;;;;5033697;28;19938;-68
2021/06/23 04:58:32;;;;;;;;;;;12.80;91.90;;;;;;5034920;28;19945;-68
2021/06/23 05:00:57;;;;;;;;;;;12.80;92.20;;;;;;5035006;28;19933;-67
2021/06/23 05:03:23;;;;;;;;;;;12.80;91.90;;;;;;5033757;28;20322;-67
2021/06/23 05:05:48;;;;;;;;;;;12.80;91.90;;;;;;5034818;28;19919;-67
2021/06/23 05:08:14;;;;;;;;;;;12.80;91.90;;;;;;5049949;28;20028;-67
2021/06/23 05:10:39;;;;;;;;;;;12.90;92.00;;;;;;5033402;28;20010;-68
2021/06/23 05:13:05;;;;;;;;;;;12.90;91.80;;;;;;5034783;28;19950;-67
2021/06/23 05:15:31;;;;;;;;;;;12.90;91.90;;;;;;5034628;28;19966;-67
2021/06/23 05:17:56;;;;;;;;;;;12.90;91.90;;;;;;5034470;28;19922;-68
2021/06/23 05:20:22;;;;;;;;;;;12.90;92.00;;;;;;5033299;28;20350;-68
2021/06/23 05:22:48;;;;;;;;;;;12.90;91.80;;;;;;5034378;28;19957;-67
2021/06/23 05:25:14;;;;;;;;;;;13.00;91.90;;;;;;5034425;28;19950;-67
2021/06/23 05:27:40;;;;;;;;;;;13.00;92.00;;;;;;5032949;28;19988;-67
2021/06/23 05:30:06;;;;;;;;;;;13.10;91.90;;;;;;5034264;28;19932;-67
2021/06/23 05:32:31;;;;;;;;;;;13.10;91.90;;;;;;5033127;28;20023;-68
2021/06/23 05:34:57;;;;;;;;;;;13.10;91.80;;;;;;5034250;28;19945;-68
2021/06/23 05:37:22;;;;;;;;;;;13.10;91.90;;;;;;5034128;28;20388;-67
2021/06/23 05:39:48;;;;;;;;;;;13.10;92.00;;;;;;5033838;28;19929;-67
2021/06/23 05:42:13;;;;;;;;;;;13.10;92.10;;;;;;5034292;28;20342;-68
2021/06/23 05:44:39;;;;;;;;;;;13.10;91.90;;;;;;5033915;28;19927;-68
2021/06/23 05:47:04;;;;;;;;;;;13.20;92.10;;;;;;5033849;28;20635;-68
2021/06/23 05:49:30;;;;;;;;;;;13.20;92.00;;;;;;5033929;28;19924;-68
2021/06/23 05:51:55;;;;;;;;;;;13.30;92.10;;;;;;5032797;28;20391;-68
2021/06/23 05:54:21;;;;;;;;;;;13.30;92.00;;;;;;5032693;28;19929;-68
2021/06/23 05:56:47;;;;;;;;;;;13.30;92.00;;;;;;5033517;28;20529;-68
2021/06/23 05:59:12;;;;;;;;;;;13.40;92.00;;;;;;5033678;28;19964;-68
2021/06/23 06:01:38;;;;;;;;;;;13.50;91.80;;;;;;5033847;28;19919;-68
2021/06/23 06:04:03;;;;;;;;;;;13.60;91.80;;;;;;5033671;28;20013;-67
2021/06/23 06:06:29;;;;;;;;;;;13.70;91.60;;;;;;5033363;28;19923;-67
2021/06/23 06:08:55;;;;;;;;;;;13.80;91.60;;;;;;5033203;28;19955;-68
2021/06/23 06:11:20;;;;;;;;;;;13.90;91.40;;;;;;5033725;28;19920;-68
2021/06/23 06:13:46;;;;;;;;;;;14.00;91.50;;;;;;5033539;28;20044;-67
2021/06/23 06:16:11;;;;;;;;;;;14.10;91.40;;;;;;5032269;28;20386;-67
2021/06/23 06:18:37;;;;;;;;;;;14.30;91.30;;;;;;5033328;28;20376;-68
2021/06/23 06:21:03;;;;;;;;;;;14.40;91.00;;;;;;5032195;28;20308;-68
2021/06/23 06:23:29;;;;;;;;;;;14.50;91.20;;;;;;5032294;28;19958;-68
2021/06/23 06:25:54;;;;;;;;;;;14.60;90.90;;;;;;5033192;28;19925;-68
2021/06/23 06:28:20;;;;;;;;;;;14.60;90.70;;;;;;5033095;28;19941;-68
2021/06/23 06:30:46;;;;;;;;;;;14.70;90.80;;;;;;5032003;28;19926;-67
2021/06/23 06:33:12;;;;;;;;;;;14.70;90.80;;;;;;5033103;28;19921;-68
2021/06/23 06:35:38;;;;;;;;;;;14.70;90.60;;;;;;5033158;28;19961;-67
2021/06/23 06:38:03;;;;;;;;;;;14.60;90.70;;;;;;5032862;28;19961;-68
2021/06/23 06:40:29;;;;;;;;;;;14.60;91.00;;;;;;5032796;28;20317;-68
2021/06/23 06:42:54;;;;;;;;;;;14.60;90.80;;;;;;5033094;28;20397;-68
2021/06/23 06:45:20;;;;;;;;;;;14.70;90.90;;;;;;5031596;28;19930;-68
2021/06/23 06:47:46;;;;;;;;;;;14.70;90.70;;;;;;5032859;28;19948;-68
2021/06/23 06:50:11;;;;;;;;;;;14.80;90.70;;;;;;5032830;28;19997;-67
2021/06/23 06:52:37;;;;;;;;;;;14.90;90.80;;;;;;5032917;28;19924;-68
2021/06/23 06:55:04;;;;;;;;;;;15.00;90.70;;;;;;5031634;28;19977;-68
2021/06/23 06:57:30;;;;;;;;;;;15.00;90.60;;;;;;5032723;28;20465;-68
2021/06/23 06:59:55;;;;;;;;;;;15.10;90.50;;;;;;5031516;28;19929;-68
2021/06/23 07:02:21;;;;;;;;;;;15.10;90.20;;;;;;5031642;28;19970;-68
2021/06/23 07:04:46;;;;;;;;;;;15.20;90.40;;;;;;5032672;28;19923;-67
2021/06/23 07:07:12;;;;;;;;;;;15.20;90.20;;;;;;5032615;28;19948;-67
2021/06/23 07:09:37;;;;;;;;;;;15.10;90.40;;;;;;5032331;28;19973;-67
2021/06/23 07:12:03;;;;;;;;;;;15.10;90.30;;;;;;5031328;28;19969;-68
2021/06/23 07:14:28;;;;;;;;;;;15.10;90.30;;;;;;5032513;28;19927;-67
2021/06/23 07:16:54;;;;;;;;;;;15.00;90.30;;;;;;5032478;28;19930;-68
2021/06/23 07:19:19;;;;;;;;;;;15.00;90.30;;;;;;5032484;28;20394;-68
2021/06/23 07:21:45;;;;;;;;;;;15.00;90.00;;;;;;5032535;28;20021;-67
2021/06/23 07:24:11;;;;;;;;;;;15.00;90.30;;;;;;5030768;28;19958;-68
2021/06/23 07:26:37;;;;;;;;;;;15.10;90.10;;;;;;5031360;28;20380;-68
2021/06/23 07:29:04;;;;;;;;;;;15.20;89.70;;;;;;5032009;28;19942;-68
2021/06/23 07:36:38;;;;;;;;;;;15.40;88.70;;;;;;5035735;28;19945;-67
2021/06/23 07:39:07;;;;;;;;;;;15.40;89.00;;;;;;5036589;28;20393;-67
2021/06/23 07:41:33;;;;;;;;;;;15.50;88.90;;;;;;5036624;28;20335;-67
2021/06/23 07:43:58;;;;;;;;;;;15.60;88.90;;;;;;5036172;28;20011;-67
2021/06/23 07:46:25;;;;;;;;;;;15.80;88.70;;;;;;5036472;28;20279;-66
2021/06/23 07:48:52;;;;;;;;;;;15.90;88.20;;;;;;5035977;28;20411;-67
2021/06/23 07:51:26;;;;;;;;;;;16.00;87.70;;;;;;5036239;28;19947;-67
2021/06/23 07:54:04;;;;;;;;;;;16.00;87.90;;;;;;5034523;28;20303;-66
2021/06/23 08:10:33;;;;;;;;;;;16.90;80.70;;;;;;5035513;28;19977;-67
2021/06/23 08:12:59;;;;;;;;;;;17.10;82.00;;;;;;5035906;28;20298;-67
2021/06/23 08:15:25;;;;;;;;;;;17.10;80.00;;;;;;5035644;28;19930;-67
2021/06/23 08:17:50;;;;;;;;;;;17.40;81.70;;;;;;5035717;28;19928;-67
2021/06/23 08:20:15;;;;;;;;;;;18.20;77.10;;;;;;5035428;28;19990;-68
2021/06/23 08:22:41;;;;;;;;;;;18.60;77.70;;;;;;5035478;28;19954;-68
2021/06/23 08:25:07;;;;;;;;;;;18.40;76.50;;;;;;5035599;28;19979;-68
2021/06/23 08:27:32;;;;;;;;;;;18.00;79.10;;;;;;5035386;28;19948;-68
2021/06/23 08:29:58;;;;;;;;;;;17.70;77.70;;;;;;5035402;28;19974;-68
2021/06/23 08:32:23;;;;;;;;;;;17.60;77.20;;;;;;5034304;28;19923;-68
2021/06/23 08:34:49;;;;;;;;;;;17.40;77.40;;;;;;5035434;28;19922;-68
2021/06/23 08:37:14;;;;;;;;;;;17.30;77.30;;;;;;5034224;28;20043;-68
2021/06/23 08:39:40;;;;;;;;;;;17.70;79.40;;;;;;5035432;28;19923;-67
2021/06/23 08:42:05;;;;;;;;;;;18.40;76.30;;;;;;5035456;28;19919;-67
2021/06/23 08:44:31;;;;;;;;;;;18.70;73.30;;;;;;5035093;28;19922;-67
2021/06/23 08:46:56;;;;;;;;;;;18.60;73.30;;;;;;5034836;28;19973;-67
2021/06/23 08:49:22;;;;;;;;;;;18.40;74.60;;;;;;5035073;28;20013;-67
2021/06/23 08:51:47;;;;;;;;;;;18.20;74.70;;;;;;5034118;28;19944;-68
2021/06/23 08:54:13;;;;;;;;;;;18.10;75.20;;;;;;5033901;28;19930;-69
2021/06/23 08:56:38;;;;;;;;;;;18.00;74.60;;;;;;5035048;28;19939;-69
2021/06/23 08:59:04;;;;;;;;;;;17.80;76.60;;;;;;5035178;28;19923;-69
2021/06/23 09:01:30;;;;;;;;;;;17.80;77.80;;;;;;5034947;28;20404;-69
2021/06/23 09:04:03;;;;;;;;;;;17.70;76.10;;;;;;5033712;28;20259;-69
2021/06/23 09:06:49;;;;;;;;;;;17.70;76.40;;;;;;5033709;28;19922;-69
2021/06/23 09:09:21;;;;;;;;;;;17.80;78.10;;;;;;5034369;28;19973;-69
2021/06/23 09:11:47;;;;;;;;;;;18.00;77.20;;;;;;5033417;28;20390;-68
2021/06/23 09:14:13;;;;;;;;;;;18.00;76.80;;;;;;5033506;28;20376;-68
2021/06/23 09:16:57;;;;;;;;;;;18.20;76.80;;;;;;5033486;28;19922;-69
2021/06/23 09:19:26;;;;;;;;;;;18.20;76.30;;;;;;5034528;28;19921;-68
2021/06/23 09:21:51;;;;;;;;;;;18.20;75.40;;;;;;5034304;28;20500;-68
2021/06/23 09:24:17;;;;;;;;;;;18.10;74.60;;;;;;5034082;28;19967;-69
2021/06/23 09:26:42;;;;;;;;;;;18.10;74.80;;;;;;5034429;28;19923;-68
2021/06/23 09:29:08;;;;;;;;;;;18.20;72.40;;;;;;5034271;28;20067;-68
2021/06/23 09:31:49;;;;;;;;;;;18.30;73.80;;;;;;5034461;28;19929;-68
2021/06/23 09:34:22;;;;;;;;;;;18.30;72.70;;;;;;5032829;28;19930;-68
2021/06/23 09:36:47;;;;;;;;;;;18.60;71.80;;;;;;5033103;28;19923;-68
2021/06/23 09:39:20;;;;;;;;;;;19.20;71.00;;;;;;5034031;28;19947;-69
2021/06/23 09:41:45;;;;;;;;;;;19.50;69.00;;;;;;5033313;28;19975;-69
2021/06/23 09:44:11;;;;;;;;;;;19.70;67.60;;;;;;5032869;28;19925;-69
2021/06/23 09:46:37;;;;;;;;;;;19.70;66.80;;;;;;5032902;28;20274;-69
2021/06/23 09:49:07;;;;;;;;;;;19.60;69.60;;;;;;5033869;28;19942;-69
2021/06/23 09:51:41;;;;;;;;;;;19.50;70.70;;;;;;5034094;28;20377;-69
2021/06/23 09:54:07;;;;;;;;;;;19.20;68.60;;;;;;5033894;28;19923;-69
2021/06/23 09:56:36;;;;;;;;;;;18.90;71.60;;;;;;5032590;28;19947;-69
2021/06/23 09:59:03;;;;;;;;;;;18.80;72.30;;;;;;5032870;28;19929;-69
2021/06/23 10:01:30;;;;;;;;;;;18.80;71.70;;;;;;5033823;28;19921;-69
2021/06/23 10:03:55;;;;;;;;;;;18.90;72.40;;;;;;5032555;28;19930;-69
2021/06/23 10:06:24;;;;;;;;;;;19.10;70.40;;;;;;5033677;28;19945;-69
2021/06/23 10:08:51;;;;;;;;;;;19.20;69.80;;;;;;5033427;28;20400;-69
2021/06/23 10:11:29;;;;;;;;;;;19.40;69.40;;;;;;5033647;28;19927;-69
2021/06/23 10:13:55;;;;;;;;;;;20.00;69.20;;;;;;5033777;28;19951;-69
2021/06/23 10:16:22;;;;;;;;;;;20.00;67.20;;;;;;5032302;28;20347;-69
2021/06/23 10:18:47;;;;;;;;;;;19.80;67.70;;;;;;5032256;28;19922;-69
2021/06/23 10:21:13;;;;;;;;;;;19.90;68.30;;;;;;5032125;28;20300;-69
2021/06/23 10:23:38;;;;;;;;;;;19.90;65.70;;;;;;5033101;28;19962;-69
2021/06/23 10:26:04;;;;;;;;;;;19.90;61.60;;;;;;5032144;28;19968;-69
2021/06/23 10:28:29;;;;;;;;;;;20.00;66.10;;;;;;5032033;28;20311;-69
2021/06/23 10:30:55;;;;;;;;;;;20.10;65.30;;;;;;5032143;28;20102;-69
2021/06/23 10:33:20;;;;;;;;;;;19.80;62.40;;;;;;5031986;28;19926;-69
2021/06/23 10:35:47;;;;;;;;;;;19.50;66.00;;;;;;5031984;28;19921;-69
2021/06/23 10:38:15;;;;;;;;;;;19.20;69.00;;;;;;5033101;28;19924;-69
2021/06/23 10:40:40;;;;;;;;;;;19.10;69.00;;;;;;5031598;28;20021;-69
2021/06/23 10:43:09;;;;;;;;;;;18.90;69.30;;;;;;5033143;28;20010;-69
2021/06/23 10:45:44;;;;;;;;;;;18.80;70.10;;;;;;5031586;28;19927;-69
2021/06/23 10:48:11;;;;;;;;;;;18.60;69.60;;;;;;5031746;28;19941;-69
2021/06/23 10:50:36;;;;;;;;;;;18.30;69.90;;;;;;5032950;28;19951;-68
2021/06/23 10:53:03;;;;;;;;;;;18.10;72.40;;;;;;5032931;28;19960;-69
2021/06/23 10:55:29;;;;;;;;;;;18.00;72.90;;;;;;5032744;28;19933;-68
2021/06/23 10:57:57;;;;;;;;;;;18.00;73.00;;;;;;5032509;28;19986;-69
2021/06/23 11:00:26;;;;;;;;;;;18.00;72.70;;;;;;5032719;28;19959;-68
2021/06/23 11:03:18;;;;;;;;;;;17.80;72.50;;;;;;5032771;28;20023;-68
2021/06/23 11:05:50;;;;;;;;;;;17.80;73.30;;;;;;5032353;28;19984;-69
2021/06/23 11:08:31;;;;;;;;;;;17.70;73.80;;;;;;5031335;28;20036;-68
2021/06/23 11:10:57;;;;;;;;;;;17.70;73.50;;;;;;5032576;28;20024;-68
2021/06/23 11:13:30;;;;;;;;;;;17.60;73.90;;;;;;5031263;28;19923;-68
2021/06/23 11:15:55;;;;;;;;;;;17.60;73.30;;;;;;5031386;28;20399;-68
2021/06/23 11:18:21;;;;;;;;;;;17.70;72.40;;;;;;5032583;28;19921;-68
2021/06/23 11:20:50;;;;;;;;;;;17.70;72.30;;;;;;5032346;28;19927;-68
2021/06/23 11:23:34;;;;;;;;;;;17.70;73.00;;;;;;5032103;28;19963;-68
2021/06/23 11:26:00;;;;;;;;;;;17.70;73.90;;;;;;5032461;28;20406;-68
2021/06/23 11:28:26;;;;;;;;;;;17.80;72.50;;;;;;5031199;28;19950;-68
2021/06/23 11:30:51;;;;;;;;;;;17.80;73.60;;;;;;5032686;28;19921;-68
2021/06/23 11:33:29;;;;;;;;;;;17.80;73.80;;;;;;5032034;28;19972;-68
2021/06/23 11:35:55;;;;;;;;;;;17.70;73.70;;;;;;5032275;28;19926;-68
2021/06/23 11:38:21;;;;;;;;;;;17.70;74.40;;;;;;5031071;28;20044;-68
2021/06/23 11:40:47;;;;;;;;;;;17.70;74.40;;;;;;5030740;28;20451;-68
2021/06/23 11:43:12;;;;;;;;;;;17.70;74.50;;;;;;5032242;28;20013;-68
2021/06/23 11:45:38;;;;;;;;;;;17.60;75.00;;;;;;5031969;28;20373;-68
2021/06/23 11:48:03;;;;;;;;;;;17.50;75.00;;;;;;5032036;28;19949;-68
2021/06/23 11:50:29;;;;;;;;;;;17.50;75.40;;;;;;5032088;28;19930;-68
2021/06/23 11:52:54;;;;;;;;;;;17.70;75.20;;;;;;5032158;28;20140;-68
2021/06/23 11:55:26;;;;;;;;;;;17.90;73.80;;;;;;5030822;28;19924;-68
2021/06/23 11:57:52;;;;;;;;;;;18.20;74.20;;;;;;5030747;28;19923;-68
2021/06/23 12:00:18;;;;;;;;;;;18.40;72.00;;;;;;5032392;28;19944;-68
2021/06/23 12:02:43;;;;;;;;;;;18.50;72.60;;;;;;5031980;28;20391;-68
2021/06/23 12:05:09;;;;;;;;;;;18.70;72.20;;;;;;5030826;28;20368;-68
2021/06/23 12:07:35;;;;;;;;;;;18.80;71.90;;;;;;5032228;28;19941;-68
2021/06/23 12:10:01;;;;;;;;;;;18.80;71.70;;;;;;5031666;28;20285;-68
2021/06/23 12:12:28;;;;;;;;;;;18.80;72.90;;;;;;5032096;28;19925;-69
2021/06/23 12:14:53;;;;;;;;;;;18.80;72.40;;;;;;5032180;28;20349;-69
2021/06/23 12:17:19;;;;;;;;;;;18.90;71.60;;;;;;5031840;28;19925;-69
2021/06/23 12:19:46;;;;;;;;;;;18.90;71.70;;;;;;5031839;28;19928;-69
2021/06/23 12:22:11;;;;;;;;;;;18.90;71.80;;;;;;5034248;28;19995;-69
2021/06/23 12:24:37;;;;;;;;;;;19.00;72.00;;;;;;5035559;28;20404;-69
2021/06/23 12:27:02;;;;;;;;;;;19.10;71.40;;;;;;5035362;28;20365;-68
2021/06/23 12:29:28;;;;;;;;;;;19.10;71.30;;;;;;5035397;28;19928;-69
2021/06/23 12:31:55;;;;;;;;;;;19.10;71.60;;;;;;5035514;28;19924;-69
2021/06/23 12:34:20;;;;;;;;;;;19.00;71.00;;;;;;5033840;28;19929;-69
2021/06/23 12:36:46;;;;;;;;;;;18.80;71.00;;;;;;5034077;28;19919;-69
2021/06/23 12:39:11;;;;;;;;;;;18.60;71.20;;;;;;5035179;28;19924;-69
2021/06/23 12:41:37;;;;;;;;;;;18.40;73.10;;;;;;5035332;28;19926;-69
2021/06/23 12:44:02;;;;;;;;;;;18.40;73.10;;;;;;5035100;28;19946;-69
2021/06/23 12:46:28;;;;;;;;;;;18.30;73.80;;;;;;5033937;28;19928;-69
2021/06/23 12:48:54;;;;;;;;;;;18.30;71.20;;;;;;5034960;28;20327;-69
2021/06/23 12:51:19;;;;;;;;;;;18.20;72.70;;;;;;5035155;28;19929;-69
2021/06/23 12:53:45;;;;;;;;;;;18.20;74.10;;;;;;5035008;28;19931;-69
2021/06/23 12:56:10;;;;;;;;;;;18.20;73.30;;;;;;5034861;28;19970;-69
2021/06/23 12:58:36;;;;;;;;;;;18.20;73.60;;;;;;5034886;28;19926;-69
2021/06/23 13:01:02;;;;;;;;;;;18.20;73.60;;;;;;5034588;28;19923;-69
2021/06/23 13:03:27;;;;;;;;;;;18.30;73.60;;;;;;5033695;28;19922;-69
2021/06/23 13:05:57;;;;;;;;;;;18.50;71.80;;;;;;5050158;28;20017;-69
2021/06/23 13:08:23;;;;;;;;;;;18.60;72.20;;;;;;5033249;28;19953;-69
2021/06/23 13:10:48;;;;;;;;;;;18.80;71.70;;;;;;5034370;28;19921;-69
2021/06/23 13:13:14;;;;;;;;;;;19.00;71.60;;;;;;5034732;28;19924;-69
2021/06/23 13:15:39;;;;;;;;;;;19.10;71.80;;;;;;5034518;28;19925;-69
2021/06/23 13:18:06;;;;;;;;;;;19.30;71.70;;;;;;5034552;28;19975;-69
2021/06/23 13:20:34;;;;;;;;;;;19.40;70.50;;;;;;5049723;28;20413;-69
2021/06/23 13:22:59;;;;;;;;;;;19.50;69.70;;;;;;5034517;28;19959;-69
2021/06/23 13:25:25;;;;;;;;;;;19.60;69.80;;;;;;5034353;28;19933;-69
2021/06/23 13:27:50;;;;;;;;;;;19.50;70.00;;;;;;5034224;28;19952;-69
2021/06/23 13:30:16;;;;;;;;;;;19.60;68.90;;;;;;5032933;28;19949;-69
2021/06/23 13:32:42;;;;;;;;;;;19.60;69.70;;;;;;5033025;28;19931;-69
2021/06/23 13:35:07;;;;;;;;;;;19.60;68.90;;;;;;5034246;28;20417;-69
2021/06/23 13:37:33;;;;;;;;;;;19.50;69.50;;;;;;5034375;28;19933;-69
2021/06/23 13:39:59;;;;;;;;;;;19.40;70.20;;;;;;5033865;28;19980;-69
2021/06/23 13:42:24;;;;;;;;;;;19.40;70.50;;;;;;5034140;28;19924;-69
2021/06/23 13:44:50;;;;;;;;;;;19.40;69.10;;;;;;5033846;28;20357;-69
2021/06/23 13:47:15;;;;;;;;;;;19.50;69.90;;;;;;5033839;28;19935;-69
2021/06/23 13:49:42;;;;;;;;;;;19.50;69.10;;;;;;5033916;28;19968;-69
2021/06/23 13:52:08;;;;;;;;;;;19.50;69.10;;;;;;5033963;28;20425;-69
2021/06/23 13:54:34;;;;;;;;;;;19.50;68.40;;;;;;5034052;28;19962;-69
2021/06/23 13:57:00;;;;;;;;;;;19.60;68.50;;;;;;5033564;28;19943;-69
2021/06/23 13:59:25;;;;;;;;;;;19.60;67.80;;;;;;5033665;28;20270;-69
2021/06/23 14:01:51;;;;;;;;;;;19.50;68.70;;;;;;5033855;28;20054;-69
2021/06/23 14:04:16;;;;;;;;;;;19.60;68.20;;;;;;5033607;28;19976;-69
2021/06/23 14:06:42;;;;;;;;;;;19.60;68.90;;;;;;5033584;28;19926;-69
2021/06/23 14:09:07;;;;;;;;;;;19.70;68.70;;;;;;5033325;28;19942;-69
2021/06/23 14:11:33;;;;;;;;;;;19.60;68.70;;;;;;5032500;28;20033;-69
2021/06/23 14:13:58;;;;;;;;;;;19.60;69.20;;;;;;5033485;28;19925;-69
2021/06/23 14:16:24;;;;;;;;;;;19.60;69.20;;;;;;5033392;28;19924;-69
2021/06/23 14:18:49;;;;;;;;;;;19.70;69.10;;;;;;5032419;28;19923;-69
2021/06/23 14:21:15;;;;;;;;;;;19.60;68.40;;;;;;5033266;28;20025;-69
2021/06/23 14:23:40;;;;;;;;;;;19.50;68.90;;;;;;5033026;28;20478;-69
2021/06/23 14:26:06;;;;;;;;;;;19.50;69.00;;;;;;5033532;28;19929;-69
2021/06/23 14:28:32;;;;;;;;;;;19.40;68.90;;;;;;5031975;28;19991;-69
2021/06/23 14:31:00;;;;;;;;;;;19.40;68.40;;;;;;5032145;28;20538;-69